Date,TemperatureHighF,TemperatureAvgF,TemperatureLowF,DewpointHighF,DewpointAvgF,DewpointLowF,HumidityHigh,HumidityAvg,HumidityLow,PressureMaxIn,PressureMinIn,WindSpeedMaxMPH,WindSpeedAvgMPH,GustSpeedMaxMPH,PrecipitationSumIn
2013-1-1,50.5,40.6,33.0,39.2,-3.5,-99.9,84,73,63,30.03,29.88,4,1,0,0.00
2013-1-2,44.3,38.3,34.1,33.9,1.8,-99.9,90,74,45,30.21,29.96,3,0,0,0.00
2013-1-3,41.9,33.3,24.7,28.0,-2.4,-99.9,84,67,45,30.24,30.14,8,0,13,0.00
2013-1-4,47.6,38.0,28.6,24.1,-3.3,-99.9,71,51,37,30.24,30.13,16,2,23,0.00
2013-1-5,51.3,39.1,26.1,35.2,-1.4,-99.9,83,53,30,30.37,30.17,8,1,0,0.01
2013-1-6,51.2,42.0,27.9,35.9,5.0,-99.9,96,68,46,30.18,30.03,9,1,0,0.00
2013-1-7,48.9,39.8,23.7,30.7,2.0,-99.9,93,62,46,30.44,30.14,6,0,0,0.00
2013-1-8,54.9,33.6,19.8,35.8,3.3,-99.9,95,79,47,30.43,30.33,8,1,0,0.00
2013-1-9,61.0,36.1,24.8,47.0,-7.3,-99.9,96,84,37,30.40,30.28,8,1,0,0.00
2013-1-10,60.4,47.5,31.4,34.7,4.4,-99.9,88,54,32,30.56,30.38,4,1,0,0.00
2013-1-11,44.3,39.4,33.6,42.5,6.0,-99.9,98,91,74,30.46,30.08,5,0,0,0.03
2013-1-12,67.3,48.7,34.4,55.3,9.9,-99.9,100,88,64,30.16,30.08,4,0,0,0.00
2013-1-13,70.6,57.7,47.4,60.9,26.7,-99.9,99,87,71,30.11,29.95,9,1,13,0.00
2013-1-14,66.2,57.1,42.3,60.6,20.6,-99.9,97,86,73,30.26,29.94,10,2,14,0.11
2013-1-15,42.6,40.0,36.8,40.2,-15.5,-99.9,98,96,93,30.30,30.12,4,1,0,0.94
2013-1-16,47.1,40.1,35.9,44.9,-2.4,-99.9,100,97,90,30.14,29.88,8,1,0,0.08
2013-1-17,47.6,40.4,31.8,46.6,-25.5,-99.9,100,98,92,30.12,29.95,6,0,0,0.73
2013-1-18,42.3,33.8,25.0,28.4,-20.6,-99.9,100,79,37,30.48,30.10,4,0,0,0.02
2013-1-19,54.4,38.4,22.5,35.4,9.1,-99.9,97,70,41,30.44,30.02,10,2,0,0.01
2013-1-20,58.5,44.9,28.4,33.6,3.1,-99.9,83,52,25,30.06,29.88,11,2,16,0.00
2013-1-21,53.4,37.4,23.7,25.5,-3.1,-99.9,91,53,24,30.08,29.78,16,2,20,0.00
2013-1-22,31.3,23.9,15.1,9.6,-19.0,-99.9,64,38,24,30.29,29.95,10,1,13,0.00
2013-1-23,33.1,23.1,9.6,16.2,-14.5,-99.9,85,47,24,30.35,30.10,9,1,0,0.00
2013-1-24,28.1,22.0,13.2,18.1,-13.7,-99.9,91,61,34,30.56,30.05,9,1,15,0.00
2013-1-25,23.0,17.9,10.5,19.4,-7.5,-99.9,88,78,49,30.54,30.06,12,1,13,0.00
2013-1-26,38.7,26.3,16.7,26.7,-2.5,-99.9,93,80,56,30.45,30.07,4,0,0,0.00
2013-1-27,36.9,26.9,15.7,26.7,0.1,-99.9,94,80,63,30.61,30.44,10,1,0,0.00
2013-1-28,49.7,40.0,32.2,44.7,8.2,-99.9,96,83,72,30.47,30.07,9,1,0,0.00
2013-1-29,74.2,56.6,37.1,57.9,24.1,-99.9,99,76,53,30.13,29.94,12,2,14,0.00
2013-1-30,67.9,62.5,55.9,63.4,18.3,-99.9,100,86,75,29.94,29.23,22,6,29,3.02
2013-1-31,57.6,38.0,31.1,57.6,8.9,-99.9,100,55,41,29.91,29.26,14,3,19,0.11
2013-2-1,34.5,27.3,18.2,24.7,-15.9,-99.9,72,53,33,30.40,29.78,13,1,15,0.00
2013-2-2,33.6,23.2,13.3,25.7,-3.4,-99.9,93,72,43,30.39,30.00,10,1,13,0.00
2013-2-3,40.6,32.0,25.5,28.1,-1.8,-99.9,93,71,49,30.00,29.82,17,2,17,0.00
2013-2-4,36.8,30.6,20.5,23.8,-1.6,-99.9,87,59,48,30.11,29.90,9,1,14,0.00
2013-2-5,55.9,37.4,25.7,36.6,7.7,-99.9,93,72,45,29.92,29.83,12,1,16,0.00
2013-2-6,54.6,39.5,26.1,31.7,18.0,-99.9,94,65,34,30.34,29.91,8,1,0,0.00
2013-2-7,39.9,34.8,26.7,29.7,3.5,-99.9,90,74,59,30.41,30.16,3,0,0,0.00
2013-2-8,54.4,39.2,31.5,42.4,3.8,-99.9,97,77,50,30.16,29.75,13,1,16,0.16
2013-2-9,48.9,37.8,22.5,23.4,12.0,-99.9,95,51,24,30.37,29.92,17,1,24,0.00
2013-2-10,45.1,31.6,17.7,32.2,-0.1,-99.9,93,66,35,30.49,30.21,11,1,14,0.00
2013-2-11,57.9,48.3,37.7,51.0,17.8,-99.9,96,80,26,30.22,29.76,16,4,17,0.00
2013-2-12,61.4,50.5,40.8,32.9,3.3,-99.9,95,43,22,29.97,29.81,19,2,19,0.00
2013-2-13,45.2,38.6,33.2,36.3,8.3,-99.9,95,79,57,29.91,29.63,5,0,0,0.02
2013-2-14,52.9,37.1,27.1,33.1,2.2,-99.9,97,73,34,30.03,29.79,11,1,12,0.00
2013-2-15,59.7,40.2,23.3,40.2,10.4,-99.9,95,73,38,30.05,29.86,12,2,15,0.00
2013-2-16,41.2,36.6,28.3,34.1,3.3,-99.9,85,67,53,29.98,29.82,7,1,0,0.00
2013-2-17,31.2,26.4,20.4,15.7,-13.0,-99.9,60,46,31,30.24,29.88,17,2,17,0.00
2013-2-18,48.4,29.8,11.7,24.7,-2.1,-99.9,88,57,30,30.39,30.14,12,2,0,0.00
2013-2-19,48.1,41.7,37.7,41.9,9.1,-99.9,94,65,37,30.14,29.73,16,6,17,0.14
2013-2-20,38.7,34.7,29.5,20.8,-28.1,-99.9,56,45,40,30.14,29.88,12,3,17,0.00
2013-2-21,47.5,35.6,22.9,22.1,0.1,-99.9,74,47,31,30.32,30.12,7,1,0,0.00
2013-2-22,38.2,34.5,31.0,29.9,11.8,-99.9,83,70,55,30.33,30.18,6,1,0,0.02
2013-2-23,55.4,40.0,31.9,43.3,10.4,-99.9,95,84,63,30.19,29.81,3,0,0,0.00
2013-2-24,57.9,42.4,30.8,41.6,11.1,-99.9,99,65,27,30.10,29.80,8,1,0,0.00
2013-2-25,45.8,34.6,24.3,23.1,2.5,-99.9,86,57,38,30.22,30.09,5,0,0,0.00
2013-2-26,40.1,31.4,23.4,39.6,8.8,-99.9,98,92,78,30.22,29.60,5,0,0,0.91
2013-2-27,53.7,44.1,32.4,43.0,5.3,-99.9,100,76,49,29.70,29.56,13,2,19,0.00
2013-2-28,46.6,41.6,38.0,33.4,11.4,-99.9,77,61,45,29.78,29.64,11,2,13,0.00
2013-3-1,43.2,38.7,34.3,32.5,3.1,-99.9,87,63,51,29.91,29.76,6,0,0,0.00
2013-3-2,38.9,34.9,32.6,25.5,0.1,-99.9,68,59,51,29.91,29.82,8,0,0,0.00
2013-3-3,45.6,34.4,28.4,21.6,-0.3,-99.9,59,50,34,29.96,29.81,10,2,13,0.00
2013-3-4,50.7,34.9,24.7,19.8,0.3,-99.9,80,45,20,30.07,29.95,10,1,15,0.00
2013-3-5,48.6,37.2,26.3,35.8,10.5,-99.9,97,70,44,30.07,29.72,7,1,0,0.22
2013-3-6,39.6,33.7,26.6,34.1,-2.6,-99.9,97,77,54,30.00,29.59,11,2,14,0.74
2013-3-7,44.1,40.3,36.9,30.5,6.5,-99.9,70,61,53,30.21,30.04,9,1,12,0.00
2013-3-8,47.2,40.2,35.7,29.8,3.2,-99.9,72,61,47,30.30,30.18,11,2,12,0.00
2013-3-9,59.2,42.6,28.8,31.4,8.2,-99.9,91,58,24,30.33,30.23,5,1,0,0.00
2013-3-10,67.2,45.2,24.7,36.1,13.3,-99.9,96,60,24,30.32,30.15,9,1,13,0.00
2013-3-11,61.7,49.6,36.6,52.9,24.0,-99.9,83,67,39,30.21,29.86,16,2,24,0.00
2013-3-12,64.5,55.7,42.5,57.9,20.5,-99.9,100,74,40,29.95,29.69,12,2,15,0.47
2013-3-13,50.1,41.6,32.7,32.1,13.2,-99.9,82,52,37,30.11,29.91,12,3,20,0.00
2013-3-14,51.8,39.0,29.5,22.3,3.3,-99.9,58,41,23,30.19,30.03,10,2,14,0.00
2013-3-15,61.4,43.3,25.6,37.4,11.3,-99.9,85,56,37,30.13,29.79,12,2,16,0.00
2013-3-16,68.0,47.1,33.3,56.5,25.6,-99.9,98,86,56,29.86,29.57,12,1,12,0.11
2013-3-17,46.9,39.4,32.5,43.8,11.8,-99.9,97,92,88,30.26,29.86,5,0,0,0.08
2013-3-18,33.6,32.6,31.9,32.8,5.0,-99.9,98,97,96,30.28,29.90,2,0,0,0.37
2013-3-19,61.7,45.7,31.8,43.4,-0.0,-99.9,100,56,11,29.98,29.73,19,3,26,0.04
2013-3-20,54.2,42.6,29.0,23.8,1.6,-99.9,78,34,17,30.03,29.75,18,2,21,0.00
2013-3-21,39.1,33.8,27.2,29.3,3.7,-99.9,77,51,31,29.95,29.76,9,2,12,0.00
2013-3-22,52.7,40.7,23.1,22.1,13.7,-99.9,72,40,25,30.01,29.88,9,2,12,0.00
2013-3-23,59.5,39.5,22.2,27.8,10.7,-99.9,87,56,23,30.06,29.87,7,1,0,0.00
2013-3-24,39.6,33.3,29.7,31.1,14.3,-99.9,97,78,51,30.00,29.63,4,0,0,0.01
2013-3-25,42.5,35.6,31.5,35.3,0.0,-99.9,97,84,58,29.73,29.53,7,0,0,0.34
2013-3-26,48.4,40.1,32.6,32.0,16.6,-99.9,83,62,46,30.06,29.72,8,1,0,0.08
2013-3-27,51.2,41.3,31.9,29.3,14.2,-99.9,83,56,37,30.18,30.06,10,2,16,0.00
2013-3-28,51.6,42.9,34.0,29.7,-1.8,-99.9,64,50,34,30.19,30.14,8,2,18,0.00
2013-3-29,58.7,44.8,28.4,32.0,21.6,-99.9,93,56,28,30.29,30.12,4,0,0,0.00
2013-3-30,66.6,53.7,29.2,34.6,31.0,27.1,92,46,24,30.24,30.05,8,1,0,0.00
2013-3-31,55.4,44.0,37.4,50.9,27.1,-99.9,98,88,76,30.08,29.74,8,1,0,0.07
2013-4-1,63.0,48.2,34.6,46.2,26.6,-99.9,99,69,44,30.00,29.79,13,2,16,0.01
2013-4-2,55.9,40.3,24.9,28.3,9.4,-99.9,90,50,16,30.17,30.00,11,1,12,0.00
2013-4-3,57.6,41.1,22.7,21.7,7.3,-99.9,85,43,16,30.36,30.17,9,2,0,0.00
2013-4-4,48.2,35.2,24.1,33.9,13.5,-99.9,97,65,28,30.42,30.05,10,1,0,0.29
2013-4-5,67.4,48.6,34.3,43.8,13.6,-99.9,100,68,27,30.04,29.84,6,1,0,0.17
2013-4-6,65.4,49.7,35.2,33.3,13.3,-99.9,74,40,14,30.28,30.02,8,1,0,0.00
2013-4-7,47.7,46.1,41.5,33.9,32.3,30.4,74,58,53,30.24,30.21,8,2,0,0.00
2013-4-10,92.6,85.3,77.9,59.1,56.3,53.8,48,38,30,29.86,29.78,12,6,15,0.00
2013-4-11,86.3,74.7,57.0,61.9,47.1,-99.9,89,57,36,29.85,29.67,12,3,17,0.00
2013-4-12,73.7,68.6,26.6,64.7,61.3,-99.9,98,81,54,29.68,29.57,16,5,19,0.25
2013-4-15,67.4,57.6,53.1,56.4,53.9,-99.9,98,91,79,30.24,30.15,5,0,0,0.05
2013-4-16,74.0,62.0,53.8,63.0,29.8,-99.9,100,88,64,30.28,30.12,9,1,0,0.03
2013-4-17,88.7,71.3,59.2,63.8,50.2,-99.9,95,71,38,30.19,30.05,7,1,0,0.08
2013-4-18,78.3,66.3,60.1,66.3,40.0,-99.9,98,83,51,30.17,29.94,11,1,16,0.08
2013-4-19,73.7,66.8,55.7,67.1,43.3,-99.9,98,83,60,29.95,29.58,12,4,16,0.91
2013-4-20,65.3,54.3,45.1,42.0,9.6,-99.9,66,46,25,30.29,29.75,12,2,14,0.00
2013-4-21,59.2,46.8,34.3,35.5,23.7,-99.9,87,58,36,30.55,30.29,7,1,0,0.00
2013-4-22,63.8,46.2,29.4,40.7,26.1,-99.9,96,65,31,30.55,30.32,8,1,0,0.00
2013-4-23,72.2,55.7,46.1,48.8,34.2,-99.9,91,65,42,30.36,30.07,6,1,0,0.00
2013-4-24,77.5,58.7,39.0,60.3,41.0,-99.9,98,76,42,30.11,29.81,14,2,17,0.02
2013-4-25,71.5,56.9,44.7,50.3,26.3,-99.9,76,50,20,30.28,29.97,10,1,12,0.00
2013-4-26,72.8,54.3,34.8,43.8,28.4,-99.9,92,56,29,30.43,30.28,6,1,0,0.00
2013-4-27,75.6,58.3,43.3,49.8,37.4,-99.9,94,65,34,30.38,30.22,6,0,0,0.00
2013-4-28,56.7,53.9,50.8,53.2,41.0,-99.9,96,87,77,30.23,30.09,6,0,0,0.07
2013-4-29,69.9,57.3,50.8,60.1,29.4,-99.9,99,90,65,30.13,29.96,3,0,0,0.11
2013-4-30,65.0,58.3,54.4,57.8,35.5,-99.9,98,90,75,30.26,30.04,8,0,0,0.01
2013-5-1,75.0,61.3,52.2,55.1,33.9,-99.9,100,68,28,30.38,30.24,7,1,0,0.02
2013-5-2,62.4,55.9,49.4,49.7,21.9,-99.9,84,69,54,30.38,30.34,4,0,0,0.00
2013-5-3,69.9,66.5,62.4,53.5,43.6,-99.9,66,58,52,30.25,30.22,4,1,1,0.00
2013-5-6,59.7,55.9,50.3,59.1,53.9,-99.9,100,98,55,30.07,29.92,7,1,0,0.99
2013-5-7,63.1,56.6,51.9,61.6,24.8,-99.9,100,98,84,29.95,29.85,6,0,0,2.28
2013-5-8,60.2,54.4,50.0,58.5,23.7,-99.9,100,98,90,29.99,29.92,1,0,0,0.14
2013-5-9,82.9,61.6,45.6,64.0,47.7,-99.9,100,81,38,30.02,29.93,6,0,0,0.01
2013-5-10,84.5,67.1,50.9,66.0,46.4,-99.9,99,77,43,30.03,29.84,16,1,18,0.18
2013-5-11,79.6,67.4,60.9,65.3,46.2,-99.9,99,84,51,29.87,29.69,5,1,0,0.01
2013-5-12,68.8,60.5,47.3,59.9,27.8,-99.9,96,53,26,30.04,29.74,9,1,0,0.00
2013-5-13,62.3,48.2,34.3,42.9,28.6,-99.9,96,64,32,30.18,30.03,7,0,0,0.00
2013-5-14,73.0,52.7,31.7,45.7,27.3,-99.9,97,64,26,30.23,30.00,6,0,0,0.00
2013-5-15,91.9,68.8,47.1,67.5,45.7,-99.9,91,64,29,30.01,29.72,6,1,0,0.00
2013-5-16,89.8,73.6,64.3,68.6,49.3,-99.9,95,63,39,29.93,29.78,12,1,18,0.01
2013-5-17,85.3,70.2,59.4,66.6,50.5,-99.9,96,77,42,30.08,29.92,3,0,0,0.02
2013-5-18,65.9,62.5,60.3,64.7,50.6,-99.9,100,97,93,30.18,30.08,2,0,0,0.45
2013-5-19,63.6,62.0,60.3,63.6,34.3,-99.9,100,100,99,30.17,30.06,2,0,0,0.05
2013-5-20,80.7,69.1,63.1,75.2,39.7,-99.9,100,93,75,30.09,29.95,3,0,0,0.03
2013-5-21,91.6,74.0,61.3,74.7,52.7,-99.9,100,85,52,29.98,29.85,3,0,0,0.00
2013-5-22,82.6,69.0,64.1,71.9,49.0,-99.9,99,94,70,29.92,29.80,4,0,0,0.29
2013-5-23,81.4,68.6,62.2,73.8,49.8,-99.9,100,93,71,29.89,29.73,4,0,0,0.79
2013-5-24,63.1,59.0,50.5,61.9,32.9,-99.9,99,71,45,30.17,29.75,11,2,15,0.00
2013-5-25,72.2,54.5,38.2,44.5,26.0,-99.9,92,57,20,30.26,30.11,8,1,0,0.00
2013-5-26,82.5,59.4,41.7,54.8,33.0,-99.9,93,63,25,30.24,30.11,5,0,0,0.00
2013-5-27,72.1,56.6,39.1,56.5,39.3,-99.9,97,76,43,30.28,30.16,0,0,0,0.00
2013-5-28,83.1,58.1,48.3,68.1,37.6,-99.9,100,90,59,30.20,30.10,0,0,0,0.00
2013-6-24,81.6,76.0,71.2,76.2,72.6,70.3,98,89,79,30.06,30.02,1,0,0,0.16
2013-6-25,98.3,78.7,68.2,79.8,59.8,-99.9,100,85,47,30.05,29.89,2,0,0,0.01
2013-6-26,94.1,75.0,66.8,79.2,55.4,-99.9,100,90,57,29.91,29.79,7,0,0,0.15
2013-6-27,86.2,72.8,65.2,76.3,58.7,-99.9,100,91,66,29.85,29.63,4,0,0,0.00
2013-6-28,91.6,78.7,69.1,75.5,59.1,-99.9,96,75,45,29.66,29.45,7,1,0,0.00
2013-6-29,89.2,73.8,60.8,73.3,52.6,-99.9,100,79,50,29.69,29.52,3,0,0,0.29
2013-6-30,87.5,72.4,63.9,76.8,59.4,-99.9,100,91,70,29.83,29.67,4,0,0,0.01
2013-7-1,86.4,74.4,68.5,76.3,57.7,-99.9,99,90,69,29.93,29.81,3,0,0,0.03
2013-7-2,76.8,73.4,70.3,73.3,63.3,-99.9,100,93,83,30.13,29.93,4,0,0,0.22
2013-7-3,83.0,73.8,70.7,78.8,49.0,-99.9,100,97,80,30.21,30.11,3,0,0,0.68
2013-7-4,91.2,77.0,71.5,82.0,63.4,-99.9,100,91,63,30.23,30.13,3,0,0,0.18
2013-7-5,86.8,77.2,71.6,77.9,65.8,-99.9,100,89,67,30.21,30.11,4,0,0,0.00
2013-7-6,88.2,76.9,68.1,76.7,55.2,-99.9,100,87,61,30.18,30.06,4,0,0,0.00
2013-7-7,84.6,74.3,69.1,77.3,55.0,-99.9,100,92,74,30.11,30.00,5,0,0,0.44
2013-7-8,88.0,74.1,66.9,75.8,57.3,-99.9,100,92,58,30.12,30.04,2,0,0,0.05
2013-7-9,85.7,75.0,67.1,79.1,62.3,-99.9,100,93,79,30.10,30.00,4,0,0,0.00
2013-7-10,85.0,75.2,71.6,80.2,63.4,-99.9,100,97,79,30.01,29.87,6,0,0,1.95
2013-7-11,86.6,74.0,69.1,77.2,52.5,-99.9,100,95,65,29.91,29.84,3,0,0,1.41
2013-7-12,71.4,67.9,65.7,69.1,49.7,-99.9,100,97,84,30.04,29.87,4,0,0,0.19
2013-7-13,83.4,72.8,66.5,75.6,43.0,-99.9,100,93,72,30.22,30.03,2,0,0,0.08
2013-7-14,92.8,77.1,68.1,79.2,61.0,-99.9,100,88,56,30.32,30.22,2,0,0,0.00
2013-7-15,98.9,79.0,66.5,80.7,56.2,-99.9,100,85,47,30.30,30.19,0,0,0,0.00
2013-7-16,96.3,79.4,67.8,83.4,58.6,-99.9,100,87,58,30.24,30.15,4,0,0,0.00
2013-7-17,88.5,77.9,71.0,82.8,65.5,-99.9,100,94,73,30.21,30.09,3,0,0,0.29
2013-7-18,97.5,80.8,69.7,83.9,65.9,-99.9,100,88,60,30.13,29.99,3,0,0,0.00
2013-7-19,90.6,78.0,71.1,82.0,58.7,-99.9,100,93,71,30.02,29.88,5,0,0,0.50
2013-7-20,93.3,77.5,70.3,80.9,51.5,-99.9,100,92,60,29.91,29.83,6,0,14,0.47
2013-7-21,92.2,75.3,67.9,79.6,56.2,-99.9,100,91,56,29.95,29.86,8,0,0,0.30
2013-7-22,90.0,76.6,69.9,79.2,63.2,-99.9,100,92,67,29.92,29.74,4,0,0,0.03
2013-7-23,93.7,77.9,70.6,77.4,49.9,-99.9,100,85,50,29.75,29.64,3,0,0,0.00
2013-7-24,87.2,74.8,66.7,76.3,56.9,-99.9,99,88,61,29.81,29.66,5,0,0,0.63
2013-7-25,85.0,74.5,64.9,70.8,66.1,60.9,97,76,55,30.04,29.93,6,0,0,0.00
2013-7-26,85.2,70.1,58.3,72.6,55.0,-99.9,100,85,55,30.09,29.99,3,0,0,0.00
2013-7-27,73.7,69.0,63.3,72.2,57.7,-99.9,100,96,88,30.03,29.90,3,0,0,0.06
2013-7-28,88.0,74.9,68.5,76.7,53.6,-99.9,98,87,64,29.97,29.86,4,0,0,0.02
2013-7-29,84.7,70.8,62.1,68.3,46.8,-99.9,98,78,46,30.16,29.97,3,0,0,0.00
2013-7-30,85.3,69.0,55.6,71.2,52.2,-99.9,100,83,49,30.22,30.12,3,0,0,0.00
2013-7-31,65.1,63.0,61.5,64.2,35.3,-99.9,100,98,96,30.14,30.11,0,0,0,0.00
2013-8-1,87.7,76.7,68.6,76.0,71.7,68.0,100,85,64,29.90,29.80,3,0,0,0.09
2013-8-2,88.9,73.5,62.8,72.7,56.1,-99.9,100,82,47,29.96,29.87,4,0,0,0.00
2013-8-3,85.9,69.5,61.1,74.4,50.8,-99.9,98,92,63,29.97,29.89,3,0,0,0.00
2013-8-4,83.0,70.3,59.8,65.8,48.7,-99.9,100,78,41,30.04,29.91,5,0,0,0.00
2013-8-5,80.8,66.3,53.9,67.3,46.3,-99.9,99,84,58,30.10,29.99,3,0,0,0.00
2013-8-6,81.3,70.0,63.6,72.0,54.3,-99.9,99,91,70,30.02,29.96,2,0,0,0.09
2013-8-7,82.5,73.5,69.2,74.9,50.7,-99.9,100,93,76,30.04,29.97,4,0,0,0.00
2013-8-8,78.5,73.7,70.0,76.8,53.3,-99.9,100,97,88,30.01,29.95,2,0,0,0.19
2013-8-9,90.9,78.9,72.0,79.7,57.0,-99.9,100,89,63,29.95,29.86,5,0,0,0.00
2013-8-10,88.4,76.3,71.3,79.2,55.6,-99.9,100,93,70,30.03,29.94,6,0,0,0.12
2013-8-11,82.0,75.1,68.6,76.4,55.3,-99.9,100,94,82,30.10,29.99,2,0,0,0.00
2013-8-12,91.0,77.1,69.0,80.0,53.4,-99.9,100,88,54,30.01,29.89,3,0,0,0.00
2013-8-13,86.8,76.1,71.1,77.9,47.1,-99.9,99,90,66,29.89,29.72,3,0,0,0.01
2013-8-14,77.9,68.0,55.7,70.0,41.3,-99.9,95,71,44,30.11,29.79,6,1,0,0.00
2013-8-15,80.4,61.9,49.8,62.7,37.1,-99.9,100,81,42,30.18,30.08,4,0,0,0.00
2013-8-16,79.4,62.8,50.5,64.4,39.5,-99.9,100,83,52,30.20,30.11,2,0,0,0.00
2013-8-17,74.3,63.3,52.3,64.9,40.9,-99.9,100,88,60,30.24,30.17,4,0,0,0.02
2013-8-18,68.3,64.0,61.3,66.0,33.3,-99.9,99,98,89,30.23,30.15,4,0,0,0.97
2013-8-19,75.4,67.9,63.0,71.2,44.3,-99.9,100,96,85,30.19,30.05,2,0,0,0.00
2013-8-20,85.6,72.8,63.8,76.2,56.8,-99.9,100,91,70,30.16,30.08,2,0,0,0.00
2013-8-21,84.7,73.3,65.4,77.3,54.3,-99.9,100,91,70,30.18,30.06,4,0,0,0.00
2013-8-22,83.5,73.3,66.9,73.7,51.7,-99.9,100,89,61,30.09,29.95,4,0,0,0.01
2013-8-23,74.8,66.2,61.6,73.6,53.0,-99.9,100,99,90,30.12,29.93,6,0,0,1.00
2013-8-24,84.6,66.3,55.7,68.5,46.2,-99.9,100,86,48,30.32,30.12,4,0,0,0.00
2013-8-25,86.8,66.3,54.4,68.5,40.4,-99.9,100,86,45,30.39,30.26,2,0,0,0.00
2013-8-26,88.0,68.5,55.4,72.9,45.5,-99.9,100,85,54,30.30,30.03,3,0,0,0.00
2013-8-27,87.6,72.7,61.7,76.0,49.7,-99.9,100,89,62,30.04,29.89,4,0,0,0.00
2013-8-28,74.7,71.7,69.4,74.4,43.0,-99.9,100,98,95,29.95,29.78,6,0,0,0.18
2013-8-29,86.2,75.1,68.3,75.2,55.4,-99.9,100,90,64,30.01,29.80,4,0,0,0.00
2013-8-30,86.4,72.5,65.1,75.2,45.9,-99.9,100,91,65,30.02,29.89,4,0,0,0.00
2013-8-31,86.3,73.8,67.6,78.4,52.7,-99.9,99,93,73,29.91,29.78,4,0,0,0.21
2013-9-1,88.2,72.2,66.5,78.2,46.3,-99.9,100,96,68,29.85,29.76,7,0,0,1.02
2013-9-2,91.8,76.3,68.9,77.9,57.9,-99.9,100,89,58,29.81,29.72,4,0,0,0.00
2013-9-3,89.1,74.6,65.4,74.7,49.9,-99.9,99,84,49,29.94,29.73,4,0,0,0.00
2013-9-4,83.6,68.3,58.2,69.9,45.3,-99.9,100,85,57,30.08,29.94,3,0,0,0.00
2013-9-5,90.1,68.4,55.4,71.3,47.6,-99.9,100,84,47,30.10,29.99,3,0,0,0.00
2013-9-6,81.7,64.4,56.0,62.8,40.3,-99.9,100,82,45,30.23,30.10,5,0,0,0.00
2013-9-7,82.9,64.5,51.9,68.6,42.4,-99.9,100,87,61,30.14,29.93,4,0,0,0.00
2013-9-8,89.3,70.5,58.2,75.1,48.5,-99.9,100,89,56,29.99,29.86,3,0,0,0.00
2013-9-9,78.3,70.1,64.4,69.5,38.3,-99.9,98,86,70,30.17,29.99,3,0,0,0.00
2013-9-10,91.5,74.3,62.2,78.3,52.4,-99.9,100,88,62,30.17,30.08,4,0,0,0.00
2013-9-11,94.0,77.0,67.1,79.5,52.4,-99.9,100,88,59,30.14,29.99,4,0,0,0.00
2013-9-12,92.8,75.4,67.4,78.8,46.6,-99.9,100,88,61,30.00,29.73,7,0,0,0.00
2013-9-13,79.7,68.6,60.6,67.5,37.6,-99.9,97,75,38,29.92,29.71,7,1,0,0.00
2013-9-14,71.8,59.0,50.0,55.7,30.4,-99.9,96,73,47,30.16,29.92,6,1,0,0.00
2013-9-15,76.4,58.9,44.4,64.2,35.2,-99.9,99,85,57,30.23,30.08,6,1,0,0.00
2013-9-16,72.5,60.9,53.0,65.7,40.8,-99.9,100,91,72,30.23,30.06,6,0,0,0.01
2013-9-17,71.3,56.6,46.6,58.8,33.6,-99.9,99,87,60,30.40,30.23,5,0,0,0.00
2013-9-18,72.0,53.8,40.1,58.2,29.9,-99.9,100,86,55,30.34,30.17,5,0,0,0.00
2013-9-19,78.3,62.0,52.7,66.3,35.6,-99.9,99,88,61,30.20,30.06,4,0,0,0.00
2013-9-20,75.8,64.1,55.9,67.7,35.7,-99.9,99,93,76,30.08,29.93,4,0,0,0.00
2013-9-21,67.3,64.4,62.4,67.3,3.6,-99.9,100,98,97,29.94,29.65,5,1,0,0.50
2013-9-22,73.7,64.6,56.7,60.5,-0.0,-99.9,97,84,53,29.93,29.72,5,1,0,0.00
2013-9-23,68.9,56.9,48.5,58.1,29.3,-99.9,99,83,56,30.10,29.93,6,0,0,0.00
2013-9-24,76.3,58.9,50.6,62.9,31.4,-99.9,99,87,56,30.10,29.93,4,0,0,0.00
2013-9-25,74.0,59.9,50.4,62.9,33.6,-99.9,100,89,63,29.97,29.87,2,0,0,0.00
2013-9-26,78.0,61.8,51.4,59.9,33.1,-99.9,99,84,49,30.08,29.89,4,0,0,0.00
2013-9-27,74.2,58.0,45.9,61.0,30.4,-99.9,100,88,57,30.22,30.08,4,0,0,0.00
2013-9-28,65.6,60.2,55.8,59.1,31.1,-99.9,99,90,71,30.29,30.20,2,0,0,0.00
2013-9-29,74.9,59.8,50.0,58.4,28.6,-99.9,100,84,45,30.20,30.04,4,0,0,0.00
2013-9-30,78.1,58.9,45.9,62.4,30.3,-99.9,100,87,55,30.09,29.96,3,0,0,0.00
2013-10-1,77.7,62.9,55.3,68.0,31.5,-99.9,99,90,55,30.08,29.99,4,0,0,0.00
2013-10-2,69.0,56.3,53.4,65.8,12.4,-99.9,100,99,90,30.10,30.03,4,0,0,0.00
2013-10-3,81.4,65.8,54.9,71.3,34.0,-99.9,100,89,64,30.11,30.03,2,0,0,0.00
2013-10-4,87.7,68.1,56.7,71.0,35.1,-99.9,100,87,48,30.10,30.01,3,0,0,0.00
2013-10-5,88.4,69.7,58.5,72.0,32.8,-99.9,100,86,51,30.09,29.98,5,0,0,0.00
2013-10-6,84.8,69.7,58.3,70.9,40.7,-99.9,100,85,51,30.01,29.88,8,1,0,0.00
2013-10-7,72.4,67.6,56.4,69.6,25.7,-99.9,100,85,62,30.05,29.75,6,2,3,0.63
2013-10-8,66.0,56.7,49.1,52.7,23.6,-99.9,97,75,50,30.27,30.05,8,1,0,0.00
2013-10-9,60.1,52.9,46.8,53.2,27.2,-99.9,100,90,73,30.30,30.19,8,1,0,0.06
2013-10-10,58.7,54.9,50.9,56.1,19.7,-99.9,97,93,86,30.19,29.97,8,2,0,0.23
2013-10-11,65.3,59.9,55.6,59.2,30.9,-99.9,97,88,78,29.99,29.93,8,2,0,0.01
2013-10-12,64.1,61.2,59.0,63.2,12.6,-99.9,99,97,91,30.07,29.96,4,0,0,0.04
2013-10-15,71.0,61.7,48.9,58.8,40.4,-99.9,100,84,54,30.22,30.08,4,0,0,0.00
2013-10-16,71.2,61.3,55.7,63.1,30.1,-99.9,98,91,70,30.09,29.91,6,0,0,0.00
2013-10-17,70.3,62.0,55.8,65.6,31.4,-99.9,100,94,77,29.91,29.74,6,1,0,0.02
2013-10-18,69.2,57.7,44.9,55.1,17.9,-99.9,97,68,42,30.02,29.84,4,0,0,0.00
2013-10-19,61.2,51.4,41.5,55.8,24.2,-99.9,99,90,65,29.99,29.79,5,0,0,0.00
2013-10-20,65.0,51.4,38.5,47.6,17.0,-99.9,97,68,36,30.11,29.89,7,0,0,0.00
2013-10-21,66.7,49.1,33.0,49.7,17.0,-99.9,99,79,45,30.16,29.95,8,1,0,0.00
2013-10-22,70.5,56.2,45.7,53.6,20.3,-99.9,98,74,46,29.95,29.78,11,0,0,0.00
2013-10-23,57.5,49.4,43.2,49.7,16.7,-99.9,98,79,54,29.95,29.67,8,0,0,0.16
2013-10-24,53.5,44.5,35.2,36.9,8.7,-99.9,94,66,44,30.17,29.95,7,1,0,0.00
2013-10-25,54.6,40.2,27.9,31.1,7.1,-99.9,95,66,32,30.34,30.16,6,1,0,0.00
2013-10-26,56.7,35.4,25.2,35.3,-8.7,-99.9,97,78,33,30.34,30.05,9,1,0,0.00
2013-10-27,63.3,51.7,33.6,43.3,24.5,-99.9,96,72,40,30.14,30.00,6,0,0,0.00
2013-10-28,67.1,46.5,31.5,49.2,16.1,-99.9,100,82,43,30.27,30.14,5,0,0,0.00
2013-10-29,68.2,53.6,44.0,54.2,19.8,-99.9,98,80,49,30.37,30.25,7,0,0,0.00
2013-10-30,70.1,57.2,48.8,60.3,53.6,46.9,98,88,67,30.32,30.11,4,0,0,0.03
2013-10-31,69.7,61.0,51.0,60.2,56.4,50.7,100,86,68,30.16,29.76,13,3,16,0.00
2013-11-1,77.5,68.7,54.4,63.8,58.8,50.3,97,73,39,29.77,29.57,19,4,20,0.03
2013-11-2,69.6,57.4,44.4,53.7,43.1,34.6,98,63,34,29.92,29.63,8,1,12,0.00
2013-11-3,59.1,48.4,30.4,39.8,33.9,27.0,93,60,31,30.41,29.91,9,1,12,0.00
2013-11-4,50.6,37.2,27.8,31.1,22.3,-99.9,96,73,44,30.62,30.41,7,0,0,0.00
2013-11-5,53.4,42.3,28.8,44.2,35.2,27.5,96,78,52,30.62,30.48,2,0,0,0.00
2013-11-6,68.3,54.4,45.8,52.7,48.4,44.2,97,82,56,30.48,30.07,9,2,0,0.00
2013-11-7,65.2,57.0,43.8,57.0,45.6,26.3,88,67,41,30.11,29.88,12,2,13,0.00
2013-11-8,54.7,40.4,27.0,31.8,26.4,22.8,91,61,30,30.34,30.11,9,1,0,0.00
2013-11-9,56.9,40.4,22.9,34.5,27.6,21.7,96,65,35,30.38,30.08,11,2,14,0.00
2013-11-10,67.9,48.4,32.7,38.7,29.3,23.6,87,54,20,30.26,29.98,16,2,18,0.00
2013-11-11,61.9,46.8,28.8,32.8,27.8,23.4,91,52,23,30.32,30.03,13,2,15,0.00
2013-11-12,51.9,41.1,28.6,37.0,24.3,14.3,63,51,42,30.43,29.95,10,2,13,0.00
2013-11-13,46.1,32.9,21.2,22.0,17.9,14.4,88,56,29,30.52,30.42,6,1,0,0.00
2013-11-14,64.3,37.8,17.5,26.8,19.3,14.6,93,58,15,30.43,30.25,8,1,0,0.00
2013-11-15,65.1,43.8,23.1,46.7,28.3,20.4,96,62,19,30.29,30.16,8,1,0,0.20
2013-11-16,53.1,49.0,45.1,51.3,48.3,44.6,99,98,93,30.29,30.22,2,0,0,0.13
2013-11-17,60.9,55.6,50.2,59.7,54.7,49.9,100,97,91,30.23,29.77,11,2,0,0.10
2013-11-18,67.2,59.9,48.2,61.1,37.9,22.9,99,48,21,29.95,29.72,19,2,22,0.05
2013-11-19,50.4,43.5,35.1,30.9,27.2,25.3,69,53,42,30.37,29.95,8,1,13,0.00
2013-11-20,46.9,35.7,28.6,28.1,26.0,23.9,91,70,41,30.55,30.37,6,0,0,0.00
2013-11-21,50.3,42.0,31.0,41.9,35.9,27.9,90,79,67,30.56,30.38,3,0,0,0.00
2013-11-22,66.9,57.6,45.7,56.5,50.7,40.8,89,78,65,30.39,30.00,8,2,0,0.00
2013-11-23,60.9,48.9,34.3,54.0,31.2,12.7,88,54,21,30.21,30.01,13,2,13,0.00
2013-11-24,34.2,27.3,19.7,15.4,-12.6,-99.9,65,41,29,30.55,30.22,8,2,13,0.00
2013-11-25,37.2,28.0,16.8,16.4,-10.8,-99.9,85,51,32,30.58,30.34,10,2,12,0.00
2013-11-26,41.0,34.7,31.8,40.7,6.9,-99.9,99,79,37,30.35,29.60,6,1,0,2.44
2013-11-27,42.0,37.0,27.6,41.3,31.0,13.2,99,80,53,30.12,29.49,9,2,18,0.22
2013-11-28,42.4,29.1,18.8,22.8,18.1,12.8,93,66,38,30.47,30.11,8,1,0,0.00
2013-11-29,44.2,28.4,16.9,28.8,21.5,15.3,95,78,44,30.76,30.45,4,0,0,0.00
2013-11-30,42.9,26.8,16.2,26.5,20.6,14.5,96,80,47,30.72,30.38,6,0,0,0.00
2013-12-1,55.3,34.1,17.5,34.0,24.4,-99.9,95,75,37,30.38,30.02,4,0,3,0.00
2013-12-2,53.8,42.5,37.3,40.1,36.0,33.1,90,78,56,30.02,29.84,3,0,0,0.00
2013-12-3,58.8,43.4,34.8,41.6,37.1,33.5,96,81,51,30.00,29.87,4,0,0,0.00
2013-12-4,62.3,49.6,34.9,54.2,45.1,33.8,98,85,67,30.06,29.96,8,1,0,0.00
2013-12-5,66.7,60.3,52.8,62.6,57.0,50.8,95,89,76,30.05,29.92,13,3,16,0.00
2013-12-6,67.5,55.2,41.1,65.1,54.2,40.2,99,96,83,30.11,29.87,10,1,13,1.21
2013-12-7,44.1,40.1,29.8,40.3,35.5,26.8,97,84,70,30.51,30.08,7,1,0,0.12
2013-12-8,32.0,29.4,27.4,31.5,27.4,24.1,98,92,78,30.56,30.28,3,0,0,0.00
2013-12-9,45.1,35.2,30.6,42.8,34.5,30.0,99,97,91,30.31,30.01,7,1,0,0.08
2013-12-10,42.0,34.2,29.8,40.6,28.9,16.7,100,83,49,30.25,29.99,8,1,15,0.35
2013-12-11,45.6,32.5,20.6,25.8,21.1,14.9,91,65,38,30.41,30.24,8,1,15,0.00
2013-12-12,40.0,31.2,21.8,23.2,13.6,1.9,78,50,23,30.42,30.26,8,1,0,0.00
2013-12-13,51.6,35.6,23.7,26.2,17.2,10.2,83,50,27,30.32,30.22,10,1,12,0.00
2013-12-14,34.7,32.8,29.5,33.8,31.1,24.3,98,93,80,30.30,29.75,2,0,0,0.45
2013-12-15,48.9,38.8,31.4,38.9,30.9,24.6,99,75,50,29.99,29.65,9,1,12,0.04
2013-12-16,45.9,38.7,32.1,32.6,29.2,26.4,84,69,52,30.15,29.96,10,1,0,0.00
2013-12-17,56.8,37.7,24.0,39.2,31.7,23.0,97,81,48,30.12,29.91,13,1,15,0.01
2013-12-18,44.2,35.1,24.1,30.1,22.7,19.8,89,62,39,30.23,30.01,14,2,14,0.00
2013-12-19,65.9,43.5,23.4,32.0,26.9,21.2,92,59,23,30.21,30.10,11,2,15,0.00
2013-12-20,60.9,51.2,35.3,40.8,33.4,27.9,77,52,35,30.14,30.02,12,3,16,0.00
2013-12-21,68.0,60.1,48.3,60.9,50.8,39.3,86,71,60,30.04,29.90,17,5,19,0.00
2013-12-22,70.6,64.3,59.6,65.0,60.4,55.3,97,87,60,29.99,29.83,17,5,21,0.22
2013-12-23,62.5,55.4,37.7,61.9,50.3,28.7,99,84,60,30.20,29.90,8,1,0,0.96
2013-12-24,42.2,33.2,22.2,30.0,20.4,7.6,87,60,39,30.49,30.19,8,1,12,0.00
2013-12-25,35.5,24.7,15.7,18.1,12.8,8.4,87,62,38,30.57,30.38,8,1,0,0.00
2013-12-26,50.2,31.2,17.3,28.1,20.8,14.9,92,69,33,30.40,30.22,12,1,18,0.00
2013-12-27,54.1,31.6,17.9,28.4,21.3,16.5,95,72,28,30.46,30.33,7,1,0,0.00
2013-12-28,60.7,36.4,18.4,33.3,24.9,17.0,95,69,26,30.38,30.14,6,0,0,0.00
2013-12-29,53.2,45.0,39.3,50.8,41.3,30.2,99,87,60,30.14,29.58,11,1,15,1.78
2013-12-30,49.2,43.7,34.0,38.9,33.9,27.2,85,69,54,30.15,29.83,6,1,13,0.00
2013-12-31,46.7,34.9,25.3,31.2,23.7,14.8,96,67,32,30.33,30.13,17,1,26,0.00
2014-1-1,51.0,33.9,21.7,28.2,23.6,20.0,95,69,36,30.40,30.10,10,1,0,0.00
2014-1-2,39.5,30.8,25.0,32.8,28.0,23.1,98,89,63,30.11,29.61,4,0,0,0.14